createdAt,value
2023-04-16T00:02:14.812Z,90.40
2023-04-16T00:04:42.273Z,90.57
2023-04-16T00:07:09.621Z,90.32
2023-04-16T00:09:36.916Z,90.09
2023-04-16T00:12:04.351Z,90.38
2023-04-16T00:14:31.598Z,90.17
2023-04-16T00:16:58.937Z,90.07
2023-04-16T00:19:26.244Z,90.03
2023-04-16T00:21:53.609Z,89.74
2023-04-16T00:24:20.845Z,89.73
2023-04-16T00:26:48.124Z,90.02
2023-04-16T00:29:15.648Z,90.30
2023-04-16T00:31:42.907Z,90.37
2023-04-16T00:34:10.403Z,90.28
2023-04-16T00:36:37.727Z,90.60
2023-04-16T00:39:05.692Z,90.40
2023-04-16T00:41:32.934Z,90.39
2023-04-16T00:44:00.195Z,90.51
2023-04-16T00:46:27.512Z,90.86
2023-04-16T00:48:54.858Z,90.73
2023-04-16T00:51:22.088Z,90.56
2023-04-16T00:53:49.436Z,89.87
2023-04-16T00:56:17.772Z,90.25
2023-04-16T00:58:45.261Z,90.10
2023-04-16T01:01:14.505Z,90.33
2023-04-16T01:03:46.372Z,90.03
2023-04-16T01:06:14.047Z,90.33
2023-04-16T01:08:41.315Z,90.46
2023-04-16T01:11:08.721Z,90.37
2023-04-16T01:13:39.359Z,90.35
2023-04-16T01:16:08.173Z,90.47
2023-04-16T01:18:35.827Z,90.50
2023-04-16T01:21:04.128Z,90.73
2023-04-16T01:23:31.692Z,90.79
2023-04-16T01:25:59.070Z,91.55
2023-04-16T01:28:26.388Z,91.13
2023-04-16T01:30:53.666Z,90.55
2023-04-16T01:33:41.198Z,90.62
2023-04-16T01:36:09.049Z,90.61
2023-04-16T01:38:36.692Z,90.73
2023-04-16T01:41:03.975Z,90.41
2023-04-16T01:43:31.258Z,90.46
2023-04-16T01:46:29.724Z,90.42
2023-04-16T01:48:57.690Z,90.34
2023-04-16T01:51:24.980Z,90.21
2023-04-16T01:53:52.320Z,90.26
2023-04-16T01:56:19.587Z,90.17
2023-04-16T01:58:47.548Z,89.80
2023-04-16T02:01:16.806Z,89.90
2023-04-16T02:03:45.359Z,90.19
2023-04-16T02:06:13.007Z,89.86
2023-04-16T02:08:40.993Z,89.95
2023-04-16T02:11:08.342Z,90.61
2023-04-16T02:13:36.071Z,90.73
2023-04-16T02:16:03.428Z,90.80
2023-04-16T02:18:51.192Z,90.36
2023-04-16T02:21:20.574Z,90.04
2023-04-16T02:23:51.683Z,89.71
2023-04-16T02:26:23.104Z,90.34
2023-04-16T02:28:51.145Z,90.74
2023-04-16T02:31:22.429Z,91.06
2023-04-16T02:33:50.023Z,90.51
2023-04-16T02:36:17.303Z,90.39
2023-04-16T02:38:44.534Z,89.89
2023-04-16T02:41:11.851Z,89.83
2023-04-16T02:43:39.160Z,90.40
2023-04-16T02:46:06.749Z,90.49
2023-04-16T02:48:34.150Z,90.56
2023-04-16T02:51:01.414Z,90.03
2023-04-16T02:53:28.719Z,89.42
2023-04-16T02:55:56.084Z,89.79
2023-04-16T02:58:24.798Z,89.77
2023-04-16T03:00:52.768Z,89.31
2023-04-16T03:03:20.553Z,88.98
2023-04-16T03:05:48.176Z,89.40
2023-04-16T03:08:16.947Z,89.70
2023-04-16T03:10:44.271Z,89.70
2023-04-16T03:13:11.548Z,89.76
2023-04-16T03:15:38.844Z,89.67
2023-04-16T03:18:06.270Z,90.06
2023-04-16T03:20:33.598Z,89.29
2023-04-16T03:23:01.286Z,89.59
2023-04-16T03:25:28.641Z,89.58
2023-04-16T03:27:56.833Z,89.70
2023-04-16T03:30:24.598Z,89.40
2023-04-16T03:32:52.114Z,89.28
2023-04-16T03:35:19.626Z,89.10
2023-04-16T03:37:46.969Z,88.95
2023-04-16T03:40:14.611Z,89.39
2023-04-16T03:42:42.576Z,89.48
2023-04-16T03:45:10.242Z,88.92
2023-04-16T03:47:38.724Z,89.05
2023-04-16T03:50:06.344Z,90.26
2023-04-16T03:52:33.818Z,89.99
2023-04-16T03:55:03.742Z,89.48
2023-04-16T03:57:31.973Z,89.79
2023-04-16T04:00:06.427Z,89.31
2023-04-16T04:02:41.762Z,90.12
2023-04-16T04:05:16.066Z,90.64
2023-04-16T04:07:44.618Z,90.29
2023-04-16T04:10:12.056Z,89.98
2023-04-16T04:12:41.998Z,90.05
2023-04-16T04:15:09.928Z,89.78
2023-04-16T04:17:37.255Z,89.36
2023-04-16T04:20:05.012Z,89.46
2023-04-16T04:22:32.390Z,89.32
2023-04-16T04:24:59.747Z,89.16
2023-04-16T04:27:29.301Z,89.71
2023-04-16T04:29:56.921Z,88.87
2023-04-16T04:32:24.991Z,88.73
2023-04-16T04:34:52.342Z,88.64
2023-04-16T04:37:19.609Z,88.29
2023-04-16T04:39:46.966Z,87.90
2023-04-16T04:42:14.330Z,87.71
2023-04-16T04:44:41.770Z,87.48
2023-04-16T04:47:09.676Z,87.87
2023-04-16T04:49:36.975Z,87.29
2023-04-16T04:52:04.250Z,88.14
2023-04-16T04:54:32.618Z,87.50
2023-04-16T04:57:00.168Z,87.78
2023-04-16T04:59:28.362Z,87.81
2023-04-16T05:01:55.879Z,87.83
2023-04-16T05:04:23.149Z,87.79
2023-04-16T05:06:50.502Z,87.20
2023-04-16T05:09:17.903Z,86.91
2023-04-16T05:11:45.146Z,86.27
2023-04-16T05:14:12.469Z,85.36
2023-04-16T05:16:39.787Z,85.55
2023-04-16T05:19:07.165Z,85.27
2023-04-16T05:21:34.617Z,85.07
2023-04-16T05:24:01.903Z,85.00
2023-04-16T05:26:29.269Z,84.47
2023-04-16T05:28:56.597Z,84.30
2023-04-16T05:31:24.150Z,84.56
2023-04-16T05:33:51.473Z,84.45
2023-04-16T05:36:18.750Z,84.04
2023-04-16T05:38:46.159Z,83.51
2023-04-16T05:41:13.410Z,83.99
2023-04-16T05:43:40.722Z,83.31
2023-04-16T05:46:08.060Z,82.79
2023-04-16T05:48:35.424Z,82.20
2023-04-16T05:51:02.859Z,81.71
2023-04-16T05:53:30.303Z,81.68
2023-04-16T05:55:57.585Z,81.21
2023-04-16T05:58:24.868Z,80.99
2023-04-16T06:00:52.207Z,80.55
2023-04-16T06:03:19.628Z,80.28
2023-04-16T06:05:47.012Z,79.52
2023-04-16T06:08:14.300Z,78.01
2023-04-16T06:10:41.607Z,76.33
2023-04-16T06:13:08.875Z,74.83
2023-04-16T06:15:36.129Z,75.22
2023-04-16T06:18:03.556Z,74.25
2023-04-16T06:20:31.035Z,74.10
2023-04-16T06:22:58.339Z,74.35
2023-04-16T06:25:25.794Z,74.21
2023-04-16T06:27:53.109Z,73.13
2023-04-16T06:30:20.619Z,73.49
2023-04-16T06:32:48.158Z,72.67
2023-04-16T06:35:15.504Z,72.32
2023-04-16T06:37:43.931Z,72.72
2023-04-16T06:40:11.534Z,71.59
2023-04-16T06:42:38.795Z,71.57
2023-04-16T06:45:06.797Z,71.42
2023-04-16T06:47:34.119Z,71.16
2023-04-16T06:50:01.385Z,70.40
2023-04-16T06:52:29.210Z,70.01
2023-04-16T06:54:56.592Z,69.60
2023-04-16T06:57:23.868Z,69.96
2023-04-16T06:59:51.264Z,69.86
2023-04-16T07:02:18.791Z,69.27
2023-04-16T07:04:46.323Z,69.26
2023-04-16T07:07:13.626Z,68.91
2023-04-16T07:09:41.060Z,68.51
2023-04-16T07:12:08.449Z,68.48
2023-04-16T07:14:35.714Z,68.20
2023-04-16T07:17:02.963Z,67.45
2023-04-16T07:19:32.604Z,66.56
2023-04-16T07:22:00.331Z,65.45
2023-04-16T07:24:27.662Z,65.55
2023-04-16T07:26:54.983Z,64.26
2023-04-16T07:29:22.245Z,63.73
2023-04-16T07:31:49.708Z,64.03
2023-04-16T07:34:17.071Z,64.97
2023-04-16T07:36:44.409Z,62.99
2023-04-16T07:39:12.335Z,62.83
2023-04-16T07:41:41.179Z,61.74
2023-04-16T07:44:08.507Z,60.69
2023-04-16T07:46:45.513Z,59.87
2023-04-16T07:49:14.552Z,60.46
2023-04-16T07:51:41.880Z,59.80
2023-04-16T07:54:09.231Z,58.82
2023-04-16T07:56:36.504Z,59.03
2023-04-16T07:59:18.543Z,58.52
2023-04-16T08:01:49.824Z,58.93
2023-04-16T08:04:23.133Z,59.54
2023-04-16T08:06:51.544Z,59.79
2023-04-16T08:09:22.750Z,59.33
2023-04-16T08:11:50.159Z,57.80
2023-04-16T08:14:17.668Z,56.79
2023-04-16T08:16:45.131Z,58.25
2023-04-16T08:19:12.749Z,58.25
2023-04-16T08:21:40.542Z,58.55
2023-04-16T08:24:08.053Z,59.05
2023-04-16T08:26:35.427Z,58.13
2023-04-16T08:29:02.727Z,57.86
2023-04-16T08:31:30.053Z,57.19
2023-04-16T08:33:57.382Z,57.13
2023-04-16T08:36:24.620Z,56.46
2023-04-16T08:38:52.360Z,55.99
2023-04-16T08:41:19.680Z,57.19
2023-04-16T08:43:47.102Z,57.18
2023-04-16T08:46:15.374Z,57.38
2023-04-16T08:48:43.638Z,56.84
2023-04-16T08:51:11.194Z,55.96
2023-04-16T08:53:54.002Z,55.14
2023-04-16T08:56:22.974Z,55.53
2023-04-16T08:58:50.874Z,56.23
2023-04-16T09:01:18.771Z,55.11
2023-04-16T09:03:47.387Z,55.09
2023-04-16T09:06:16.399Z,56.95
2023-04-16T09:08:46.741Z,55.95
2023-04-16T09:11:14.152Z,56.11
2023-04-16T09:13:41.480Z,55.12
2023-04-16T09:16:09.527Z,55.69
2023-04-16T09:18:36.821Z,55.93
2023-04-16T09:21:04.800Z,55.47
2023-04-16T09:23:32.143Z,54.86
2023-04-16T09:25:59.440Z,53.58
2023-04-16T09:28:43.398Z,53.49
2023-04-16T09:31:12.322Z,53.68
2023-04-16T09:33:39.617Z,53.35
2023-04-16T09:36:07.615Z,53.18
2023-04-16T09:38:51.524Z,53.48
2023-04-16T09:41:19.088Z,52.61
2023-04-16T09:43:59.207Z,53.02
2023-04-16T09:46:30.776Z,52.03
2023-04-16T09:48:58.292Z,51.69
2023-04-16T09:51:27.026Z,52.49
2023-04-16T09:53:54.954Z,52.68
2023-04-16T09:56:24.972Z,51.23
2023-04-16T09:58:57.618Z,52.42
2023-04-16T10:01:25.506Z,51.61
2023-04-16T10:03:54.170Z,51.13
2023-04-16T10:06:22.989Z,50.96
2023-04-16T10:08:51.400Z,50.58
2023-04-16T10:11:19.315Z,50.35
2023-04-16T10:13:46.677Z,49.05
2023-04-16T10:16:14.006Z,48.45
2023-04-16T10:18:42.350Z,48.73
2023-04-16T10:21:12.197Z,48.63
2023-04-16T10:23:40.035Z,47.02
2023-04-16T10:26:07.428Z,46.56
2023-04-16T10:28:37.582Z,45.12
2023-04-16T10:31:07.642Z,44.84
2023-04-16T10:33:36.587Z,42.13
2023-04-16T10:36:14.176Z,41.68
2023-04-16T10:38:45.352Z,42.66
2023-04-16T10:41:12.760Z,43.67
2023-04-16T10:43:42.665Z,42.63
2023-04-16T10:46:26.819Z,40.98
2023-04-16T10:48:54.582Z,40.69
2023-04-16T10:51:33.111Z,40.06
2023-04-16T10:54:04.239Z,40.60
2023-04-16T10:56:35.342Z,40.70
2023-04-16T10:59:06.500Z,39.38
2023-04-16T11:01:55.082Z,39.63
2023-04-16T11:04:25.446Z,41.06
2023-04-16T11:07:11.685Z,41.42
2023-04-16T11:10:02.135Z,40.82
2023-04-16T11:12:29.369Z,41.52
2023-04-16T11:15:15.634Z,39.41
2023-04-16T11:17:46.869Z,39.12
2023-04-16T11:20:27.752Z,38.34
2023-04-16T11:22:56.698Z,38.05
2023-04-16T11:25:29.883Z,37.24
2023-04-16T11:27:59.289Z,37.28
2023-04-16T11:30:37.496Z,37.28
2023-04-16T11:33:08.779Z,37.27
2023-04-16T11:35:36.128Z,36.54
2023-04-16T11:38:04.170Z,36.50
2023-04-16T11:40:31.824Z,37.48
2023-04-16T11:43:14.304Z,37.93
2023-04-16T11:46:01.596Z,37.34
2023-04-16T11:48:49.646Z,37.06
2023-04-16T11:51:17.146Z,37.95
2023-04-16T11:53:52.908Z,37.49
2023-04-16T11:56:30.070Z,36.57
2023-04-16T11:59:10.275Z,36.43
2023-04-16T12:01:38.316Z,36.40
2023-04-16T12:04:06.373Z,37.65
2023-04-16T12:06:33.935Z,36.31
2023-04-16T12:09:01.493Z,37.42
2023-04-16T12:11:41.402Z,37.22
2023-04-16T12:14:09.358Z,37.30
2023-04-16T12:16:36.725Z,37.29
2023-04-16T12:19:04.551Z,36.56
2023-04-16T12:21:45.026Z,37.22
2023-04-16T12:24:13.763Z,36.51
2023-04-16T12:26:42.783Z,36.09
2023-04-16T12:29:16.626Z,35.96
2023-04-16T12:31:44.375Z,36.29
2023-04-16T12:34:11.769Z,35.77
2023-04-16T12:36:39.138Z,36.31
2023-04-16T12:39:07.491Z,35.90
2023-04-16T12:41:36.940Z,35.79
2023-04-16T12:44:09.197Z,35.32
2023-04-16T12:46:37.539Z,35.25
2023-04-16T12:49:05.019Z,34.67
2023-04-16T12:51:33.309Z,34.84
2023-04-16T12:54:01.493Z,34.96
2023-04-16T12:56:28.739Z,33.96
2023-04-16T12:58:56.219Z,34.88
2023-04-16T13:01:23.679Z,34.41
2023-04-16T13:03:51.217Z,34.52
2023-04-16T13:06:18.752Z,33.23
2023-04-16T13:08:46.030Z,34.20
2023-04-16T13:11:13.447Z,34.49
2023-04-16T13:13:40.958Z,34.66
2023-04-16T13:16:08.735Z,34.55
2023-04-16T13:18:40.169Z,34.03
2023-04-16T13:21:07.457Z,34.32
2023-04-16T13:23:35.268Z,33.70
2023-04-16T13:26:02.620Z,34.07
2023-04-16T13:28:29.862Z,34.25
2023-04-16T13:30:57.507Z,34.12
2023-04-16T13:33:25.966Z,33.90
2023-04-16T13:35:53.276Z,34.30
2023-04-16T13:38:20.558Z,34.55
2023-04-16T13:40:47.805Z,33.98
2023-04-16T13:43:16.643Z,33.99
2023-04-16T13:45:43.992Z,34.71
2023-04-16T13:48:11.332Z,34.54
2023-04-16T13:50:38.590Z,34.25
2023-04-16T13:53:05.869Z,34.55
2023-04-16T13:55:33.167Z,34.57
2023-04-16T13:58:00.494Z,34.31
2023-04-16T14:00:27.790Z,33.76
2023-04-16T14:02:55.209Z,32.64
2023-04-16T14:05:25.137Z,32.75
2023-04-16T14:07:53.862Z,31.99
2023-04-16T14:10:21.274Z,32.27
2023-04-16T14:12:48.561Z,31.62
2023-04-16T14:15:15.907Z,31.79
2023-04-16T14:17:43.957Z,30.55
2023-04-16T14:20:12.809Z,30.36
2023-04-16T14:22:40.170Z,29.38
2023-04-16T14:25:07.628Z,28.88
2023-04-16T14:27:35.158Z,28.43
2023-04-16T14:30:02.466Z,27.86
2023-04-16T14:32:30.628Z,27.28
2023-04-16T14:34:57.969Z,26.71
2023-04-16T14:37:26.352Z,25.92
2023-04-16T14:39:54.107Z,26.48
2023-04-16T14:42:22.422Z,26.93
2023-04-16T14:44:49.790Z,26.84
2023-04-16T14:47:17.103Z,26.44
2023-04-16T14:49:44.382Z,26.25
2023-04-16T14:52:11.684Z,27.15
2023-04-16T14:54:38.948Z,27.63
2023-04-16T14:57:06.223Z,27.03
2023-04-16T14:59:33.580Z,27.78
2023-04-16T15:02:01.137Z,26.81
2023-04-16T15:04:28.598Z,27.07
2023-04-16T15:06:59.043Z,26.79
2023-04-16T15:09:27.551Z,26.47
2023-04-16T15:11:54.891Z,27.34
2023-04-16T15:14:22.174Z,28.02
2023-04-16T15:16:49.650Z,27.53
2023-04-16T15:19:17.690Z,27.71
2023-04-16T15:21:47.495Z,27.09
2023-04-16T15:24:15.964Z,27.77
2023-04-16T15:26:43.442Z,27.71
2023-04-16T15:29:10.841Z,27.76
2023-04-16T15:31:38.124Z,28.58
2023-04-16T15:34:05.587Z,28.90
2023-04-16T15:36:33.336Z,29.32
2023-04-16T15:39:00.708Z,29.55
2023-04-16T15:41:29.225Z,30.04
2023-04-16T15:43:56.505Z,30.88
2023-04-16T15:46:23.835Z,31.56
2023-04-16T15:48:51.178Z,31.75
2023-04-16T15:51:18.468Z,32.15
2023-04-16T15:53:45.881Z,33.21
2023-04-16T15:56:13.191Z,33.54
2023-04-16T15:58:40.489Z,33.94
2023-04-16T16:01:07.735Z,34.29
2023-04-16T16:03:36.136Z,34.80
2023-04-16T16:06:08.498Z,35.19
2023-04-16T16:08:36.063Z,35.22
2023-04-16T16:11:03.351Z,35.57
2023-04-16T16:13:30.670Z,35.69
2023-04-16T16:15:57.973Z,36.02
2023-04-16T16:18:25.211Z,36.23
2023-04-16T16:20:57.407Z,36.48
2023-04-16T16:23:25.156Z,36.62
2023-04-16T16:25:52.524Z,36.83
2023-04-16T16:28:20.611Z,36.95
2023-04-16T16:30:48.088Z,37.41
2023-04-16T16:33:15.468Z,37.73
2023-04-16T16:35:42.753Z,38.41
2023-04-16T16:38:10.023Z,38.11
2023-04-16T16:40:38.562Z,38.38
2023-04-16T16:43:05.962Z,38.49
2023-04-16T16:45:33.297Z,38.51
2023-04-16T16:48:00.666Z,38.51
2023-04-16T16:50:27.939Z,38.28
2023-04-16T16:52:55.262Z,38.38
2023-04-16T16:55:22.673Z,37.53
2023-04-16T16:57:50.117Z,37.84
2023-04-16T17:00:19.968Z,37.87
2023-04-16T17:02:48.360Z,37.66
2023-04-16T17:05:15.761Z,37.86
2023-04-16T17:07:43.059Z,37.71
2023-04-16T17:10:13.090Z,38.41
2023-04-16T17:12:40.853Z,38.05
2023-04-16T17:15:08.576Z,38.62
2023-04-16T17:17:35.987Z,39.23
2023-04-16T17:20:08.897Z,39.32
2023-04-16T17:22:37.071Z,38.99
2023-04-16T17:25:04.757Z,39.66
2023-04-16T17:27:35.164Z,39.61
2023-04-16T17:30:03.134Z,40.82
2023-04-16T17:32:32.488Z,40.36
2023-04-16T17:35:04.513Z,40.86
2023-04-16T17:37:32.060Z,40.50
2023-04-16T17:39:59.555Z,41.21
2023-04-16T17:42:26.807Z,40.55
2023-04-16T17:44:54.114Z,40.96
2023-04-16T17:47:21.483Z,41.17
2023-04-16T17:49:48.868Z,41.71
2023-04-16T17:52:16.317Z,41.44
2023-04-16T17:54:43.738Z,41.98
2023-04-16T17:57:11.163Z,42.46
2023-04-16T17:59:38.493Z,42.78
2023-04-16T18:02:06.018Z,42.61
2023-04-16T18:04:33.513Z,43.65
2023-04-16T18:07:00.974Z,43.12
2023-04-16T18:09:28.345Z,43.51
2023-04-16T18:11:56.755Z,44.21
2023-04-16T18:14:24.142Z,43.87
2023-04-16T18:16:51.423Z,44.09
2023-04-16T18:19:18.712Z,43.64
2023-04-16T18:21:46.051Z,44.00
2023-04-16T18:24:13.973Z,44.17
2023-04-16T18:26:41.478Z,44.37
2023-04-16T18:29:09.195Z,44.38
2023-04-16T18:31:36.713Z,44.67
2023-04-16T18:34:04.114Z,44.53
2023-04-16T18:36:31.644Z,44.97
2023-04-16T18:39:01.475Z,44.86
2023-04-16T18:41:43.745Z,45.07
2023-04-16T18:44:11.193Z,45.31
2023-04-16T18:46:38.538Z,45.08
2023-04-16T18:49:05.981Z,44.29
2023-04-16T18:51:33.279Z,45.41
2023-04-16T18:54:00.573Z,44.00
2023-04-16T18:56:29.762Z,44.51
2023-04-16T18:58:57.063Z,44.50
2023-04-16T19:01:24.354Z,43.47
2023-04-16T19:03:51.680Z,43.08
2023-04-16T19:06:18.964Z,42.96
2023-04-16T19:08:46.290Z,42.20
2023-04-16T19:11:13.588Z,42.04
2023-04-16T19:13:40.891Z,41.88
2023-04-16T19:16:11.536Z,42.18
2023-04-16T19:18:39.153Z,41.67
2023-04-16T19:21:07.165Z,41.63
2023-04-16T19:23:34.519Z,41.38
2023-04-16T19:26:01.860Z,42.04
2023-04-16T19:28:29.195Z,41.99
2023-04-16T19:30:56.456Z,42.36
2023-04-16T19:33:23.767Z,42.56
2023-04-16T19:35:51.047Z,42.83
2023-04-16T19:38:18.370Z,43.11
2023-04-16T19:40:46.746Z,43.58
2023-04-16T19:43:14.173Z,43.72
2023-04-16T19:45:48.334Z,44.19
2023-04-16T19:48:15.847Z,44.21
2023-04-16T19:50:43.267Z,44.95
2023-04-16T19:53:11.175Z,45.38
2023-04-16T19:55:41.798Z,45.72
2023-04-16T19:58:09.321Z,46.00
2023-04-16T20:00:37.842Z,46.40
2023-04-16T20:03:05.552Z,47.02
2023-04-16T20:05:32.931Z,47.31
2023-04-16T20:08:00.396Z,47.40
2023-04-16T20:10:27.865Z,47.71
2023-04-16T20:12:55.154Z,47.94
2023-04-16T20:15:22.490Z,48.10
2023-04-16T20:17:49.975Z,48.23
2023-04-16T20:20:17.446Z,48.16
2023-04-16T20:22:44.792Z,48.57
2023-04-16T20:25:14.495Z,49.27
2023-04-16T20:27:41.821Z,49.11
2023-04-16T20:30:09.467Z,49.22
2023-04-16T20:32:36.731Z,49.89
2023-04-16T20:35:05.516Z,50.04
2023-04-16T20:37:38.062Z,50.42
2023-04-16T20:40:09.556Z,50.62
2023-04-16T20:42:36.858Z,50.94
2023-04-16T20:45:04.944Z,51.76
2023-04-16T20:47:34.849Z,51.87
2023-04-16T20:50:02.908Z,51.87
2023-04-16T20:52:30.173Z,52.07
2023-04-16T20:54:57.887Z,52.21
2023-04-16T20:57:25.856Z,52.36
2023-04-16T20:59:53.204Z,51.97
2023-04-16T21:02:21.095Z,52.01
2023-04-16T21:04:48.534Z,51.97
2023-04-16T21:07:15.915Z,52.33
2023-04-16T21:09:43.240Z,52.21
2023-04-16T21:12:10.538Z,52.20
2023-04-16T21:14:37.867Z,52.46
2023-04-16T21:17:05.239Z,52.19
2023-04-16T21:19:32.531Z,52.15
2023-04-16T21:21:59.776Z,52.50
2023-04-16T21:24:27.056Z,52.70
2023-04-16T21:26:54.297Z,52.80
2023-04-16T21:29:21.591Z,52.79
2023-04-16T21:31:48.923Z,52.72
2023-04-16T21:34:16.371Z,52.63
2023-04-16T21:36:43.732Z,52.82
2023-04-16T21:39:11.557Z,53.10
2023-04-16T21:41:39.074Z,52.96
2023-04-16T21:44:06.410Z,52.72
2023-04-16T21:46:33.721Z,52.63
2023-04-16T21:49:01.373Z,52.89
2023-04-16T21:51:31.376Z,52.77
2023-04-16T21:53:58.694Z,52.56
2023-04-16T21:56:26.099Z,53.11
2023-04-16T21:58:53.351Z,53.22
2023-04-16T22:01:20.737Z,53.29
2023-04-16T22:03:50.766Z,53.04
2023-04-16T22:06:18.413Z,53.14
2023-04-16T22:08:45.727Z,53.06
2023-04-16T22:11:13.063Z,53.42
2023-04-16T22:13:42.368Z,53.53
2023-04-16T22:16:11.780Z,52.86
2023-04-16T22:18:41.097Z,52.99
2023-04-16T22:21:08.424Z,52.84
2023-04-16T22:23:35.964Z,53.39
2023-04-16T22:26:04.169Z,53.54
2023-04-16T22:28:31.575Z,53.59
2023-04-16T22:30:58.828Z,53.66
2023-04-16T22:33:29.042Z,53.91
2023-04-16T22:35:56.315Z,54.08
2023-04-16T22:38:23.785Z,53.78
2023-04-16T22:40:51.052Z,54.21
2023-04-16T22:43:18.321Z,53.98
2023-04-16T22:45:48.696Z,54.24
2023-04-16T22:48:16.457Z,54.46
2023-04-16T22:50:48.638Z,54.48
2023-04-16T22:53:16.056Z,54.54
2023-04-16T22:55:43.307Z,54.40
2023-04-16T22:58:10.731Z,54.31
2023-04-16T23:00:38.150Z,54.73
2023-04-16T23:03:05.576Z,54.55
2023-04-16T23:05:33.152Z,54.40
2023-04-16T23:08:01.193Z,54.39
2023-04-16T23:10:28.465Z,54.42
2023-04-16T23:12:55.942Z,54.39
2023-04-16T23:15:23.206Z,54.65
2023-04-16T23:17:50.547Z,54.65
2023-04-16T23:20:17.885Z,54.77
2023-04-16T23:22:45.272Z,55.04
2023-04-16T23:25:12.664Z,54.54
2023-04-16T23:27:39.956Z,54.83
2023-04-16T23:30:08.333Z,54.64
2023-04-16T23:32:35.856Z,54.79
2023-04-16T23:35:03.228Z,55.05
2023-04-16T23:37:30.509Z,55.11
2023-04-16T23:39:57.779Z,54.80
2023-04-16T23:42:25.033Z,55.23
2023-04-16T23:44:52.385Z,55.03
2023-04-16T23:47:19.622Z,55.45
2023-04-16T23:49:46.932Z,55.56
2023-04-16T23:52:14.265Z,55.19
2023-04-16T23:54:41.514Z,55.39
2023-04-16T23:57:08.895Z,55.86
2023-04-16T23:59:36.181Z,55.28
